Latest Weather Observations for Portland Airport

IDV60801

Issued at 11:02 pm EDT Monday 8 February 2016 (issued every 30 minutes, with the page automatically refreshed every 10 minutes)

About weather observations | Map of weather stations | Latest weather observations for VIC | Other Formats
Station Details ID: 090171 Name: CASHMORE AIRPORT Lat: -38.31 Lon: 141.47 Height: 80.9 m
Data from the previous 72 hours. | See also: Recent months at Portland Airport
Date/Time
EDT
Temp
°C
App
Temp
°C
Dew
Point
Rel
Hum
%
Delta-T
°C
Wind Press
QNH
hPa
Press
MSL
hPa
Rain
since 9 am
mm
Dir
 
Spd
km/h
Gust
km/h
Spd
kts
Gust
kts
08/11:00pm 16.2 14.6 11.4 73 2.6 SE 11 15 6 8 1024.5 1024.4 0.0
08/10:30pm 16.8 14.8 11.5 71 2.9 SSE 13 20 7 11 1024.5 1024.4 0.0
08/10:00pm 16.9 15.0 11.8 72 2.8 SSE 13 20 7 11 1024.5 1024.4 0.0
08/09:30pm 17.5 15.5 12.8 74 2.6 SSE 15 22 8 12 1024.3 1024.2 0.0
08/09:00pm 17.0 15.8 12.7 76 2.4 SSE 11 17 6 9 1024.2 1024.1 0.0
08/08:30pm 17.7 16.2 13.2 75 2.5 SSE 13 24 7 13 1024.1 1024.0 0.0
08/08:00pm 18.1 15.9 13.2 73 2.8 S 17 24 9 13 1023.8 1023.7 0.0
08/07:30pm 18.6 16.9 13.5 72 2.9 SSE 15 24 8 13 1023.6 1023.5 0.0
08/07:00pm 18.9 16.4 13.5 71 3.1 S 19 28 10 15 1023.4 1023.3 0.0
08/06:30pm 19.1 17.0 13.5 70 3.2 S 17 26 9 14 1023.3 1023.2 0.0
08/06:00pm 19.0 17.0 12.7 67 3.5 S 15 28 8 15 1023.4 1023.3 0.0
08/05:30pm 19.7 17.3 12.7 64 4.0 S 17 26 9 14 1023.4 1023.3 0.0
08/05:00pm 19.8 16.9 12.3 62 4.2 SSW 19 28 10 15 1023.5 1023.4 0.0
08/04:30pm 21.7 19.6 12.5 56 5.2 S 15 24 8 13 1023.6 1023.5 0.0
08/04:00pm 20.7 18.6 12.4 59 4.7 S 15 24 8 13 1023.7 1023.6 0.0
08/03:30pm 21.3 18.6 13.0 59 4.8 S 19 26 10 14 1023.8 1023.7 0.0
08/03:00pm 21.4 19.1 13.1 59 4.7 S 17 24 9 13 1023.9 1023.8 0.0
08/02:30pm 21.4 19.3 12.5 57 5.1 S 15 22 8 12 1023.9 1023.8 0.0
08/02:00pm 21.4 18.6 11.4 53 5.5 SSE 17 28 9 15 1024.0 1023.9 0.0
08/01:30pm 20.7 17.8 11.1 54 5.3 SE 17 30 9 16 1024.1 1024.0 0.0
08/01:00pm 20.3 17.5 11.5 57 4.9 S 17 24 9 13 1024.5 1024.4 0.0
08/12:30pm 19.8 16.9 11.0 57 4.8 S 17 24 9 13 1024.6 1024.5 0.0
08/12:00pm 20.4 17.5 11.1 55 5.1 SSE 17 26 9 14 1024.7 1024.6 0.0
08/11:30am 18.7 15.9 11.5 63 4.0 S 17 24 9 13 1024.6 1024.5 0.0
08/11:00am 19.3 17.0 11.8 62 4.1 SSE 15 24 8 13 1024.4 1024.3 0.0
08/10:30am 18.9 16.1 11.2 61 4.2 SSE 17 24 9 13 1024.5 1024.4 0.0
08/10:00am 17.9 15.8 11.0 64 3.7 SSE 13 20 7 11 1024.4 1024.3 0.0
08/09:30am 17.9 15.5 11.5 66 3.5 SSE 15 24 8 13 1024.3 1024.2 0.0
08/09:00am 17.6 14.7 10.9 65 3.6 SE 17 24 9 13 1024.1 1024.0 0.2
08/08:30am 17.9 15.8 11.0 64 3.7 SE 13 19 7 10 1023.7 1023.6 0.2
08/08:00am 16.8 15.2 11.5 71 2.9 SE 11 19 6 10 1023.4 1023.3 0.2
08/07:30am 16.3 14.2 11.2 72 2.8 SE 13 22 7 12 1023.1 1023.0 0.2
08/07:00am 16.1 14.8 11.3 73 2.6 SE 9 13 5 7 1022.8 1022.7 0.2
08/06:30am 16.1 14.4 11.1 72 2.7 SE 11 19 6 10 1022.4 1022.3 0.2
08/06:00am 16.2 14.5 11.2 72 2.7 SSE 11 19 6 10 1022.1 1022.0 0.2
08/05:30am 16.2 14.4 10.9 71 2.8 SSE 11 17 6 9 1021.9 1021.8 0.2
08/05:00am 16.1 14.8 11.1 72 2.7 SSE 9 15 5 8 1021.8 1021.7 0.2
08/04:30am 16.1 14.8 11.1 72 2.7 SSE 9 17 5 9 1021.7 1021.6 0.2
08/04:00am 16.2 14.9 11.4 73 2.6 SSE 9 15 5 8 1021.6 1021.5 0.2
08/03:30am 16.4 15.6 11.8 74 2.5 SSE 7 11 4 6 1021.7 1021.6 0.2
08/03:00am 16.3 15.5 11.7 74 2.5 SSE 7 11 4 6 1021.7 1021.6 0.2
08/02:30am 16.3 14.6 11.2 72 2.8 SE 11 17 6 9 1021.8 1021.7 0.2
08/02:00am 16.5 14.9 11.6 73 2.7 SSE 11 17 6 9 1022.0 1021.9 0.2
08/01:30am 16.5 14.9 11.6 73 2.7 SSE 11 19 6 10 1022.1 1022.0 0.2
08/01:00am 16.7 15.2 12.0 74 2.6 SSE 11 19 6 10 1022.1 1022.0 0.2
08/12:30am 16.5 14.9 11.4 72 2.8 SSE 11 17 6 9 1022.1 1022.0 0.2
08/12:00am 16.6 15.6 12.2 75 2.4 SSE 9 15 5 8 1022.0 1021.9 0.2
 
Date/Time
EDT
Temp
°C
App
Temp
°C
Dew
Point
Rel
Hum
%
Delta-T
°C
Wind Press
QNH
hPa
Press
MSL
hPa
Rain
since 9 am
mm
Dir
 
Spd
km/h
Gust
km/h
Spd
kts
Gust
kts
07/11:30pm 16.0 14.9 12.0 77 2.2 S 9 15 5 8 1022.0 1021.9 0.2
07/11:00pm 16.6 15.4 12.9 79 2.1 SSE 11 17 6 9 1021.9 1021.8 0.2
07/10:30pm 16.3 15.1 12.8 80 1.9 SSE 11 17 6 9 1021.8 1021.7 0.2
07/10:00pm 16.4 15.2 12.9 80 1.9 SSE 11 17 6 9 1021.5 1021.4 0.2
07/09:30pm 17.1 15.7 13.4 79 2.1 SSE 13 20 7 11 1021.2 1021.1 0.2
07/09:00pm 17.5 16.2 13.6 78 2.2 S 13 19 7 10 1020.8 1020.7 0.2
07/08:30pm 18.1 16.5 13.8 76 2.5 SSE 15 22 8 12 1020.6 1020.5 0.2
07/08:00pm 18.3 16.7 13.8 75 2.6 S 15 20 8 11 1020.2 1020.1 0.2
07/07:30pm 18.9 17.0 14.2 74 2.7 SSE 17 26 9 14 1019.8 1019.6 0.2
07/07:00pm 18.8 16.8 13.9 73 2.8 S 17 24 9 13 1019.4 1019.2 0.2
07/06:30pm 19.3 17.4 14.3 73 2.9 SSE 17 24 9 13 1019.2 1019.0 0.2
07/06:00pm 20.1 18.4 14.7 71 3.2 SSE 17 24 9 13 1019.0 1018.8 0.2
07/05:30pm 20.2 18.7 14.1 68 3.5 S 15 24 8 13 1019.0 1018.8 0.2
07/05:00pm 20.7 19.0 14.6 68 3.6 S 17 24 9 13 1019.0 1018.8 0.2
07/04:30pm 20.7 18.6 14.8 69 3.5 S 19 30 10 16 1019.0 1018.8 0.2
07/04:00pm 20.8 19.5 14.7 68 3.6 S 15 26 8 14 1018.9 1018.7 0.2
07/03:30pm 21.4 19.7 14.6 65 4.0 S 17 24 9 13 1019.0 1018.8 0.2
07/03:00pm 21.1 19.2 14.3 65 4.0 S 17 26 9 14 1019.1 1018.9 0.2
07/02:30pm 21.2 19.3 14.1 64 4.1 SSW 17 26 9 14 1019.1 1018.9 0.2
07/02:00pm 22.0 20.9 14.4 62 4.5 S 13 22 7 12 1019.0 1018.8 0.2
07/01:30pm 21.1 19.9 15.0 68 3.6 S 15 22 8 12 1019.1 1018.9 0.2
07/01:00pm 21.3 20.0 13.7 62 4.4 S 13 24 7 13 1019.1 1018.9 0.2
07/12:30pm 21.2 19.4 13.4 61 4.5 S 15 22 8 12 1019.1 1018.9 0.2
07/12:00pm 21.0 19.7 13.7 63 4.2 SSE 13 20 7 11 1018.8 1018.6 0.2
07/11:30am 20.4 19.3 14.3 68 3.6 SSW 13 17 7 9 1019.0 1018.8 0.2
07/11:00am 19.7 18.2 14.3 71 3.1 SSW 15 24 8 13 1019.2 1019.0 0.2
07/10:45am 20.6 19.6 14.5 68 3.6 S 13 20 7 11 1019.1 1018.9 0.2
07/10:30am 20.2 19.4 14.1 68 3.5 S 11 20 6 11 1019.0 1018.8 0.2
07/10:00am 20.0 19.3 15.4 75 2.7 S 13 20 7 11 1018.9 1018.7 0.0
07/09:32am 19.6 18.9 15.5 77 2.4 S 13 20 7 11 1018.7 1018.5 0.0
07/09:30am 19.1 18.1 14.6 75 2.6 S 13 20 7 11 1018.7 1018.5 0.0
07/09:00am 18.7 18.5 15.6 82 1.8 S 11 24 6 13 1018.4 1018.2 0.0
07/08:30am 17.6 17.7 15.4 87 1.3 S 9 17 5 9 1017.7 1017.5 0.0
07/08:00am 17.1 17.8 16.0 93 0.6 SSW 7 11 4 6 1017.4 1017.2 0.0
07/07:30am 16.2 16.7 15.1 93 0.6 SSW 6 9 3 5 1017.2 1017.0 0.0
07/07:00am 16.0 15.9 14.9 93 0.6 SSW 9 13 5 7 1016.9 1016.7 0.0
07/06:30am 15.6 15.8 14.6 94 0.6 SSW 7 11 4 6 1016.8 1016.6 0.0
07/06:07am 16.0 15.5 15.0 94 0.6 SSW 11 15 6 8 1016.7 1016.5 0.0
07/06:00am 16.1 15.3 15.1 94 0.6 SSW 13 17 7 9 1016.7 1016.5 0.0
07/05:32am 16.4 15.8 15.6 95 0.5 SSW 13 17 7 9 1016.4 1016.2 0.0
07/05:30am 16.4 15.8 15.6 95 0.5 SSW 13 17 7 9 1016.4 1016.2 0.0
07/05:00am 16.4 15.9 15.8 96 0.4 SSW 13 20 7 11 1016.2 1016.0 0.0
07/04:30am 16.1 15.8 15.5 96 0.4 SSW 11 15 6 8 1015.9 1015.7 0.0
07/04:00am 12.8 11.7 12.0 95 0.4 SSW 9 11 5 6 1015.7 1015.5 0.0
07/03:30am 12.8 13.4 11.9 94 0.5 CALM 0 0 0 0 1015.4 1015.2 0.0
07/03:00am 14.1 15.1 13.3 95 0.4 CALM 0 0 0 0 1015.6 1015.4 0.0
07/02:30am 12.6 13.1 11.5 93 0.6 CALM 0 0 0 0 1015.9 1015.7 0.0
07/02:05am 14.2 15.2 13.2 94 0.6 CALM 0 0 0 0 1016.0 1015.8 0.0
07/02:02am 13.6 14.4 12.7 94 0.5 CALM 0 0 0 0 1016.1 1015.9 0.0
07/02:00am 13.5 14.3 12.6 94 0.5 CALM 0 0 0 0 1016.1 1015.9 0.0
07/01:30am 13.1 13.7 12.0 93 0.6 CALM 0 0 0 0 1016.5 1016.3 0.0
07/01:21am 13.2 13.9 12.1 93 0.6 CALM 0 0 0 0 1016.6 1016.4 0.0
07/01:00am 13.7 14.5 12.4 92 0.7 CALM 0 0 0 0 1016.6 1016.4 0.0
07/12:30am 14.9 15.7 13.8 93 0.6 E 2 6 1 3 1016.7 1016.5 0.0
07/12:00am 14.9 15.7 13.6 92 0.7 E 2 6 1 3 1016.7 1016.5 0.0
 
Date/Time
EDT
Temp
°C
App
Temp
°C
Dew
Point
Rel
Hum
%
Delta-T
°C
Wind Press
QNH
hPa
Press
MSL
hPa
Rain
since 9 am
mm
Dir
 
Spd
km/h
Gust
km/h
Spd
kts
Gust
kts
06/11:39pm 15.2 15.2 13.7 91 0.8 E 6 7 3 4 1016.5 1016.3 0.0
06/11:30pm 16.0 16.3 14.5 91 0.9 E 6 7 3 4 1016.5 1016.3 0.0
06/11:00pm 16.8 17.3 15.0 89 1.0 E 6 7 3 4 1016.6 1016.4 0.0
06/10:30pm 16.7 17.1 14.7 88 1.2 E 6 9 3 5 1016.5 1016.3 0.0
06/10:00pm 16.7 16.9 14.3 86 1.4 E 6 7 3 4 1016.5 1016.3 0.0
06/09:30pm 17.2 17.3 14.5 84 1.6 E 7 9 4 5 1016.1 1015.9 0.0
06/09:00pm 18.0 17.8 14.7 81 1.9 ESE 9 11 5 6 1015.8 1015.6 0.0
06/08:30pm 19.2 18.8 15.1 77 2.4 ESE 11 15 6 8 1015.5 1015.3 0.0
06/08:00pm 20.0 19.1 14.8 72 3.1 ESE 13 19 7 10 1015.2 1015.0 0.0
06/07:30pm 21.1 20.1 14.7 67 3.8 ESE 13 19 7 10 1015.1 1014.9 0.0
06/07:00pm 22.0 20.5 14.1 61 4.6 ESE 15 22 8 12 1014.8 1014.6 0.0
06/06:30pm 22.8 21.2 13.8 57 5.3 SSE 15 20 8 11 1014.7 1014.5 0.0
06/06:00pm 23.7 21.6 13.6 53 5.9 SSE 17 24 9 13 1014.7 1014.5 0.0
06/05:30pm 23.6 21.3 12.9 51 6.2 SSE 17 26 9 14 1014.7 1014.5 0.0
06/05:00pm 24.3 22.6 13.5 51 6.3 S 15 24 8 13 1014.8 1014.6 0.0
06/04:30pm 23.8 21.3 12.4 48 6.5 S 17 24 9 13 1015.0 1014.8 0.0
06/04:00pm 24.6 22.5 12.5 46 7.0 S 15 24 8 13 1015.3 1015.1 0.0
06/03:30pm 24.8 22.8 12.7 47 7.0 SSE 15 22 8 12 1015.5 1015.3 0.0
06/03:00pm 24.8 22.6 12.1 45 7.3 S 15 22 8 12 1015.6 1015.4 0.0
06/02:30pm 24.7 23.0 12.6 47 7.0 S 13 22 7 12 1015.6 1015.4 0.0
06/02:00pm 26.0 24.5 13.2 45 7.5 S 13 19 7 10 1015.7 1015.5 0.0
06/01:30pm 26.2 25.1 13.0 44 7.7 SSW 11 17 6 9 1015.9 1015.7 0.0
06/01:00pm 24.8 24.0 14.0 51 6.4 S 11 19 6 10 1016.2 1016.0 0.0
06/12:30pm 24.5 23.5 14.6 54 5.9 S 13 17 7 9 1016.6 1016.4 0.0
06/12:00pm 23.8 22.6 13.9 54 5.8 S 13 17 7 9 1016.8 1016.6 0.0
06/11:30am 25.0 24.7 12.6 46 7.2 NNE 6 11 3 6 1016.7 1016.5 0.0
06/11:00am 24.0 24.0 13.5 52 6.1 NE 6 11 3 6 1016.7 1016.5 0.0
06/10:30am 22.9 22.5 14.2 58 5.1 ENE 9 13 5 7 1016.7 1016.5 0.0
06/10:00am 20.6 20.0 14.5 68 3.6 ENE 11 15 6 8 1016.8 1016.6 0.0
06/09:30am 19.5 18.5 14.5 73 2.9 ENE 13 19 7 10 1016.9 1016.7 0.0
06/09:00am 18.3 17.2 14.4 78 2.3 ENE 13 19 7 10 1017.0 1016.8 0.0
06/08:30am 17.1 16.5 14.7 86 1.4 E 11 15 6 8 1016.9 1016.7 0.0
06/08:00am 15.6 15.3 14.3 92 0.7 ENE 9 15 5 8 1016.9 1016.7 0.0
06/07:34am 14.6 14.6 13.6 94 0.6 ENE 6 9 3 5 1016.8 1016.6 0.0
06/07:30am 14.3 14.2 13.3 94 0.6 ENE 6 9 3 5 1016.7 1016.5 0.0
06/07:00am 13.4 14.1 12.1 92 0.7 CALM 0 0 0 0 1016.4 1016.2 0.0
06/06:52am 13.8 14.2 12.5 92 0.7 E 2 6 1 3 1016.3 1016.1 0.0
06/06:30am 14.3 13.9 13.0 92 0.7 E 7 11 4 6 1016.1 1015.9 0.0
06/06:00am 14.9 14.0 13.6 92 0.7 ENE 11 17 6 9 1015.8 1015.6 0.0
06/05:30am 15.3 14.5 14.0 92 0.7 ENE 11 17 6 9 1015.6 1015.4 0.0
06/05:00am 15.5 14.4 14.2 92 0.7 ENE 13 20 7 11 1015.7 1015.5 0.0
06/04:30am 15.6 14.5 14.3 92 0.7 E 13 19 7 10 1016.0 1015.8 0.0
06/04:00am 15.8 15.2 14.5 92 0.7 E 11 17 6 9 1016.2 1016.0 0.0
06/03:30am 15.8 15.1 14.3 91 0.9 E 11 17 6 9 1016.4 1016.2 0.0
06/03:00am 16.0 15.4 14.5 91 0.9 E 11 17 6 9 1016.9 1016.7 0.0
06/02:30am 16.2 15.6 14.6 90 0.9 E 11 17 6 9 1017.3 1017.1 0.0
06/02:00am 16.5 15.2 14.7 89 1.0 E 15 19 8 10 1017.5 1017.3 0.0
06/01:30am 16.7 15.4 14.9 89 1.0 E 15 20 8 11 1017.8 1017.6 0.0
06/01:00am 16.8 15.5 14.8 88 1.2 E 15 20 8 11 1017.9 1017.7 0.0
06/12:30am 17.0 15.4 15.0 88 1.2 E 17 24 9 13 1018.2 1018.0 0.0
06/12:00am 17.2 16.0 15.0 87 1.3 ESE 15 26 8 14 1018.3 1018.1 0.0
 
Date/Time
EDT
Temp
°C
App
Temp
°C
Dew
Point
Rel
Hum
%
Delta-T
°C
Wind Press
QNH
hPa
Press
MSL
hPa
Rain
since 9 am
mm
Dir
 
Spd
km/h
Gust
km/h
Spd
kts
Gust
kts
05/11:30pm 17.2 15.9 14.8 86 1.4 ESE 15 22 8 12 1018.6 1018.4 0.0

Other Formats:

Comma delimited format used in spreadsheet applications
http://www.bom.gov.au/fwo/IDV60801/IDV60801.94828.axf

JavaScript Object Notation format (JSON) in row-major order
http://www.bom.gov.au/fwo/IDV60801/IDV60801.94828.json